createdAt,value
2023-02-04T00:01:19.419Z,6.00
2023-02-04T00:06:23.593Z,5.95
2023-02-04T00:11:28.001Z,3.13
2023-02-04T00:16:33.880Z,3.83
2023-02-04T00:21:38.442Z,6.47
2023-02-04T00:26:42.749Z,3.17
2023-02-04T00:31:48.824Z,3.58
2023-02-04T00:36:53.262Z,4.47
2023-02-04T00:41:57.718Z,3.75
2023-02-04T00:47:03.449Z,2.92
2023-02-04T00:52:07.780Z,4.28
2023-02-04T00:57:11.936Z,5.13
2023-02-04T01:02:18.529Z,3.22
2023-02-04T01:07:23.197Z,2.97
2023-02-04T01:12:28.789Z,4.10
2023-02-04T01:17:35.144Z,3.50
2023-02-04T01:22:39.532Z,3.28
2023-02-04T01:27:45.605Z,3.90
2023-02-04T01:32:51.385Z,2.97
2023-02-04T01:37:55.926Z,3.67
2023-02-04T01:43:00.430Z,4.45
2023-02-04T01:53:11.714Z,3.90
2023-02-04T01:58:16.409Z,2.97
2023-02-04T02:03:22.745Z,3.78
2023-02-04T02:08:27.200Z,2.67
2023-02-04T02:13:31.679Z,4.07
2023-02-04T02:18:38.483Z,4.10
2023-02-04T02:23:51.871Z,4.15
2023-02-04T02:28:57.023Z,3.15
2023-02-04T02:34:01.142Z,4.07
2023-02-04T02:39:07.139Z,4.97
2023-02-04T02:44:14.015Z,3.13
2023-02-04T02:49:20.933Z,3.33
2023-02-04T02:54:31.237Z,9.65
2023-02-04T02:59:39.313Z,10.77
2023-02-04T03:04:47.603Z,14.48
2023-02-04T03:09:55.044Z,12.93
2023-02-04T03:14:59.937Z,17.80
2023-02-04T03:20:07.410Z,15.95
2023-02-04T03:25:13.443Z,13.18
2023-02-04T03:30:18.385Z,12.80
2023-02-04T03:40:30.415Z,14.48
2023-02-04T03:45:44.949Z,14.40
2023-02-04T03:50:50.067Z,10.45
2023-02-04T03:55:55.704Z,11.50
2023-02-04T04:01:00.269Z,13.10
2023-02-04T04:06:06.451Z,10.18
2023-02-04T04:11:12.174Z,8.38
2023-02-04T04:16:16.811Z,8.20
2023-02-04T04:21:21.350Z,9.73
2023-02-04T04:26:27.292Z,9.32
2023-02-04T04:31:31.785Z,5.63
2023-02-04T04:41:41.807Z,4.90
2023-02-04T04:46:46.191Z,6.80
2023-02-04T04:51:50.347Z,9.68
2023-02-04T04:56:56.080Z,13.55
2023-02-04T05:02:00.333Z,10.10
2023-02-04T05:07:04.543Z,10.90
2023-02-04T05:12:10.382Z,10.30
2023-02-04T05:17:14.739Z,6.88
2023-02-04T05:27:24.421Z,8.68
2023-02-04T05:32:28.552Z,12.18
2023-02-04T05:42:38.441Z,8.50
2023-02-04T05:47:43.049Z,12.77
2023-02-04T05:57:52.378Z,10.25
2023-02-04T06:02:56.935Z,8.68
2023-02-04T06:13:07.044Z,9.45
2023-02-04T06:18:11.750Z,11.68
2023-02-04T06:23:16.679Z,8.52
2023-02-04T06:28:22.177Z,11.88
2023-02-04T06:33:26.614Z,11.25
2023-02-04T06:38:30.782Z,12.40
2023-02-04T06:48:40.421Z,15.00
2023-02-04T06:53:46.007Z,14.68
2023-02-04T06:58:51.597Z,16.73
2023-02-04T07:03:55.974Z,13.35
2023-02-04T07:14:06.379Z,18.70
2023-02-04T07:19:10.864Z,16.48
2023-02-04T07:29:25.744Z,23.98
2023-02-04T07:34:30.311Z,18.05
2023-02-04T07:39:35.168Z,19.33
2023-02-04T07:44:40.654Z,18.85
2023-02-04T07:49:45.060Z,16.30
2023-02-04T07:54:49.189Z,20.45
2023-02-04T07:59:54.870Z,16.52
2023-02-04T08:04:59.405Z,16.83
2023-02-04T08:10:03.661Z,14.27
2023-02-04T08:15:10.615Z,15.15
2023-02-04T08:20:14.751Z,14.00
2023-02-04T08:25:21.413Z,17.30
2023-02-04T08:30:26.898Z,14.93
2023-02-04T08:35:31.014Z,13.77
2023-02-04T08:40:35.443Z,12.95
2023-02-04T08:45:41.737Z,13.82
2023-02-04T08:50:46.285Z,17.45
2023-02-04T08:55:50.427Z,18.00
2023-02-04T09:00:56.198Z,13.15
2023-02-04T09:06:00.341Z,13.25
2023-02-04T09:11:05.777Z,11.55
2023-02-04T09:16:11.910Z,10.13
2023-02-04T09:21:16.179Z,10.95
2023-02-04T09:26:21.122Z,10.52
2023-02-04T09:31:27.254Z,11.20
2023-02-04T09:36:34.416Z,12.60
2023-02-04T09:41:40.529Z,9.13
2023-02-04T09:46:51.706Z,9.10
2023-02-04T09:51:57.027Z,12.70
2023-02-04T09:57:01.618Z,8.52
2023-02-04T10:02:23.622Z,7.20
2023-02-04T10:07:28.977Z,7.53
2023-02-04T10:12:33.673Z,13.15
2023-02-04T10:17:39.441Z,9.05
2023-02-04T10:22:44.208Z,7.82
2023-02-04T10:27:53.982Z,6.72
2023-02-04T10:32:59.988Z,11.48
2023-02-04T10:38:06.821Z,5.80
2023-02-04T10:43:15.627Z,8.68
2023-02-04T10:48:21.602Z,8.43
2023-02-04T10:53:45.462Z,7.38
2023-02-04T10:58:50.506Z,8.07
2023-02-04T11:03:56.125Z,7.47
2023-02-04T11:09:00.915Z,5.32
2023-02-04T11:14:05.329Z,5.60
2023-02-04T11:19:16.472Z,4.65
2023-02-04T11:24:27.347Z,6.72
2023-02-04T11:29:37.072Z,7.85
2023-02-04T11:34:52.957Z,5.95
2023-02-04T11:40:01.608Z,7.63
2023-02-04T11:45:17.031Z,6.35
2023-02-04T11:50:26.675Z,6.43
2023-02-04T11:55:32.864Z,5.85
2023-02-04T12:00:38.503Z,8.15
2023-02-04T12:05:47.955Z,9.02
2023-02-04T12:11:00.807Z,13.60
2023-02-04T12:16:08.498Z,10.75
2023-02-04T12:21:15.541Z,9.18
2023-02-04T12:26:19.958Z,7.70
2023-02-04T12:31:25.099Z,9.20
2023-02-04T12:36:30.966Z,6.13
2023-02-04T12:41:35.101Z,8.43
2023-02-04T12:46:40.026Z,4.93
2023-02-04T12:51:45.791Z,4.50
2023-02-04T12:56:52.608Z,5.88
2023-02-04T13:01:57.165Z,7.18
2023-02-04T13:12:08.349Z,12.32
2023-02-04T13:17:12.961Z,7.70
2023-02-04T13:22:18.853Z,7.03
2023-02-04T13:27:23.304Z,6.47
2023-02-04T13:32:28.247Z,7.65
2023-02-04T13:42:38.337Z,9.25
2023-02-04T13:47:42.446Z,9.90
2023-02-04T13:52:48.182Z,6.80
2023-02-04T13:57:52.500Z,9.27
2023-02-04T14:02:57.612Z,6.40
2023-02-04T14:08:13.117Z,9.38
2023-02-04T14:13:17.297Z,9.75
2023-02-04T14:18:22.037Z,14.20
2023-02-04T14:28:31.849Z,14.05
2023-02-04T14:33:36.516Z,15.38
2023-02-04T14:38:42.016Z,11.18
2023-02-04T14:43:46.689Z,15.85
2023-02-04T14:48:52.109Z,11.52
2023-02-04T14:53:57.858Z,10.10
2023-02-04T14:59:02.265Z,14.27
2023-02-04T15:04:06.678Z,8.50
2023-02-04T15:09:12.206Z,12.52
2023-02-04T15:14:16.357Z,12.48
2023-02-04T15:19:21.623Z,11.70
2023-02-04T15:24:29.490Z,16.15
2023-02-04T15:29:34.004Z,14.70
2023-02-04T15:34:40.905Z,9.05
2023-02-04T15:39:46.723Z,10.80
2023-02-04T15:44:51.486Z,12.00
2023-02-04T15:49:55.837Z,16.48
2023-02-04T15:55:01.823Z,17.92
2023-02-04T16:00:09.487Z,11.23
2023-02-04T16:05:13.867Z,15.23
2023-02-04T16:10:20.978Z,12.48
2023-02-04T16:15:26.078Z,11.00
2023-02-04T16:20:30.953Z,12.15
2023-02-04T16:25:36.795Z,18.17
2023-02-04T16:30:41.362Z,12.38
2023-02-04T16:36:03.840Z,12.93
2023-02-04T16:41:09.730Z,10.95
2023-02-04T16:46:16.078Z,8.27
2023-02-04T16:51:20.649Z,10.32
2023-02-04T17:01:34.379Z,9.07
2023-02-04T17:11:44.426Z,14.55
2023-02-04T17:16:51.524Z,12.18
2023-02-04T17:21:55.901Z,11.98
2023-02-04T17:27:03.321Z,11.80
2023-02-04T17:32:08.727Z,17.85
2023-02-04T17:37:13.528Z,11.20
2023-02-04T17:42:19.468Z,11.82
2023-02-04T17:47:23.993Z,9.52
2023-02-04T17:52:30.817Z,11.10
2023-02-04T17:57:36.574Z,9.95
2023-02-04T18:02:47.923Z,10.80
2023-02-04T18:08:00.753Z,14.02
2023-02-04T18:13:15.309Z,9.52
2023-02-04T18:18:24.434Z,9.57
2023-02-04T18:23:31.378Z,9.02
2023-02-04T18:28:39.522Z,12.38
2023-02-04T18:33:45.314Z,8.65
2023-02-04T18:38:50.799Z,6.13
2023-02-04T18:44:03.317Z,7.20
2023-02-04T18:49:18.498Z,6.93
2023-02-04T18:54:31.428Z,7.68
2023-02-04T18:59:37.518Z,6.15
2023-02-04T19:04:41.649Z,7.97
2023-02-04T19:14:51.255Z,10.95
2023-02-04T19:20:01.724Z,6.47
2023-02-04T19:25:29.564Z,5.00
2023-02-04T19:30:50.843Z,5.80
2023-02-04T19:35:55.046Z,5.22
2023-02-04T19:41:00.318Z,5.60
2023-02-04T19:46:20.842Z,7.30
2023-02-04T19:51:30.549Z,10.40
2023-02-04T19:56:38.747Z,7.72
2023-02-04T20:01:44.452Z,7.63
2023-02-04T20:06:49.392Z,8.98
2023-02-04T20:12:06.150Z,4.90
2023-02-04T20:17:22.479Z,13.63
2023-02-04T20:22:51.325Z,4.35
2023-02-04T20:28:01.025Z,9.35
2023-02-04T20:33:34.306Z,9.32
2023-02-04T20:38:38.690Z,9.43
2023-02-04T20:43:44.475Z,5.57
2023-02-04T20:48:50.960Z,6.03
2023-02-04T20:53:58.281Z,5.70
2023-02-04T20:59:28.402Z,11.93
2023-02-04T21:04:41.835Z,9.77
2023-02-04T21:09:48.114Z,5.80
2023-02-04T21:14:52.445Z,7.22
2023-02-04T21:19:58.107Z,8.50
2023-02-04T21:25:02.410Z,7.10
2023-02-04T21:30:08.303Z,7.80
2023-02-04T21:35:13.934Z,8.13
2023-02-04T21:40:22.043Z,4.65
2023-02-04T21:45:27.461Z,12.80
2023-02-04T21:50:33.994Z,12.65
2023-02-04T21:55:38.784Z,8.75
2023-02-04T22:00:42.918Z,9.98
2023-02-04T22:05:48.464Z,7.50
2023-02-04T22:10:52.609Z,14.02
2023-02-04T22:15:56.768Z,8.35
2023-02-04T22:21:02.333Z,12.57
2023-02-04T22:26:09.338Z,7.25
2023-02-04T22:31:14.931Z,9.55
2023-02-04T22:36:20.690Z,8.57
2023-02-04T22:41:24.986Z,9.25
2023-02-04T22:46:29.855Z,13.13
2023-02-04T22:51:36.017Z,11.77
2023-02-04T22:56:40.380Z,12.43
2023-02-04T23:06:50.468Z,12.45
2023-02-04T23:11:56.778Z,13.63
2023-02-04T23:17:01.188Z,9.88
2023-02-04T23:27:12.046Z,11.90
2023-02-04T23:32:16.926Z,14.45
2023-02-04T23:37:22.706Z,16.58
2023-02-04T23:42:27.142Z,20.30
2023-02-04T23:47:31.855Z,13.27
2023-02-04T23:52:37.417Z,12.57
2023-02-04T23:57:41.745Z,10.80
